createdAt,value
2018-07-20T00:01:08.377Z,20.00
2018-07-20T00:03:35.923Z,20.00
2018-07-20T00:06:03.527Z,19.80
2018-07-20T00:08:31.382Z,19.80
2018-07-20T00:10:59.033Z,19.70
2018-07-20T00:13:26.579Z,19.60
2018-07-20T00:15:54.197Z,19.60
2018-07-20T00:18:21.774Z,19.60
2018-07-20T00:20:49.358Z,19.60
2018-07-20T00:23:16.974Z,19.60
2018-07-20T00:25:44.589Z,19.50
2018-07-20T00:28:12.413Z,19.40
2018-07-20T00:30:40.023Z,19.40
2018-07-20T00:33:07.601Z,19.20
2018-07-20T00:35:35.165Z,19.10
2018-07-20T00:38:02.756Z,19.20
2018-07-20T00:40:30.321Z,19.10
2018-07-20T00:42:57.874Z,19.10
2018-07-20T00:45:25.485Z,19.10
2018-07-20T00:47:53.081Z,19.10
2018-07-20T00:50:20.702Z,19.10
2018-07-20T00:52:48.278Z,19.10
2018-07-20T00:55:15.860Z,18.90
2018-07-20T00:57:43.705Z,18.90
2018-07-20T01:00:11.275Z,18.90
2018-07-20T01:02:38.889Z,18.90
2018-07-20T01:05:06.659Z,18.80
2018-07-20T01:07:34.962Z,18.80
2018-07-20T01:10:02.733Z,18.70
2018-07-20T01:12:30.357Z,18.70
2018-07-20T01:14:57.962Z,18.70
2018-07-20T01:17:25.561Z,18.70
2018-07-20T01:19:53.266Z,18.60
2018-07-20T01:22:20.890Z,18.50
2018-07-20T01:24:48.545Z,18.40
2018-07-20T01:27:16.521Z,18.30
2018-07-20T01:29:44.161Z,18.30
2018-07-20T01:32:11.748Z,18.40
2018-07-20T01:34:39.334Z,18.40
2018-07-20T01:37:06.941Z,18.40
2018-07-20T01:39:34.566Z,18.30
2018-07-20T01:42:02.199Z,18.40
2018-07-20T01:44:29.784Z,18.30
2018-07-20T01:49:24.925Z,18.10
2018-07-20T01:51:52.503Z,18.10
2018-07-20T01:54:20.078Z,18.10
2018-07-20T01:56:47.676Z,18.10
2018-07-20T01:59:15.245Z,18.00
2018-07-20T02:01:42.825Z,17.80
2018-07-20T02:04:10.385Z,17.80
2018-07-20T02:06:38.641Z,17.80
2018-07-20T02:09:08.315Z,17.90
2018-07-20T02:11:36.045Z,17.80
2018-07-20T02:14:03.753Z,18.00
2018-07-20T02:16:31.358Z,18.00
2018-07-20T02:18:58.949Z,17.90
2018-07-20T02:21:26.561Z,17.90
2018-07-20T02:23:54.199Z,18.00
2018-07-20T02:26:21.809Z,18.00
2018-07-20T02:28:49.395Z,18.00
2018-07-20T02:31:17.078Z,17.90
2018-07-20T02:36:12.178Z,17.80
2018-07-20T02:38:39.747Z,17.80
2018-07-20T02:41:07.342Z,17.80
2018-07-20T02:43:35.108Z,17.70
2018-07-20T02:46:02.732Z,17.80
2018-07-20T02:48:30.317Z,17.60
2018-07-20T02:53:25.722Z,17.60
2018-07-20T02:55:53.354Z,17.60
2018-07-20T02:58:21.009Z,17.60
2018-07-20T03:00:48.565Z,17.50
2018-07-20T03:03:16.202Z,17.50
2018-07-20T03:05:43.931Z,17.40
2018-07-20T03:08:11.549Z,17.40
2018-07-20T03:10:39.289Z,17.40
2018-07-20T03:13:07.045Z,17.40
2018-07-20T03:15:34.670Z,17.40
2018-07-20T03:18:02.341Z,17.50
2018-07-20T03:20:29.909Z,17.40
2018-07-20T03:22:57.494Z,17.30
2018-07-20T03:25:25.057Z,17.20
2018-07-20T03:27:53.473Z,17.10
2018-07-20T03:30:21.068Z,17.10
2018-07-20T03:32:49.332Z,17.00
2018-07-20T03:35:17.273Z,17.00
2018-07-20T03:37:44.855Z,16.90
2018-07-20T03:40:15.130Z,16.90
2018-07-20T03:42:42.795Z,16.90
2018-07-20T03:45:10.405Z,16.90
2018-07-20T03:47:38.678Z,16.90
2018-07-20T03:50:07.034Z,16.90
2018-07-20T03:52:34.630Z,16.90
2018-07-20T03:55:02.654Z,16.90
2018-07-20T03:57:30.242Z,17.00
2018-07-20T03:59:57.837Z,16.90
2018-07-20T04:02:25.483Z,16.80
2018-07-20T04:04:53.027Z,16.80
2018-07-20T04:07:20.613Z,16.80
2018-07-20T04:09:48.213Z,16.90
2018-07-20T04:12:15.821Z,16.80
2018-07-20T04:14:43.431Z,16.80
2018-07-20T04:17:10.989Z,16.80
2018-07-20T04:19:38.737Z,16.80
2018-07-20T04:22:06.331Z,16.80
2018-07-20T04:24:33.989Z,16.80
2018-07-20T04:27:01.585Z,16.70
2018-07-20T04:29:30.518Z,16.60
2018-07-20T04:31:58.114Z,16.60
2018-07-20T04:34:25.779Z,16.60
2018-07-20T04:36:53.504Z,16.60
2018-07-20T04:39:21.117Z,16.60
2018-07-20T04:41:48.718Z,16.60
2018-07-20T04:44:16.349Z,16.60
2018-07-20T04:46:44.386Z,16.60
2018-07-20T04:49:12.380Z,16.70
2018-07-20T04:51:40.081Z,16.60
2018-07-20T04:54:07.685Z,16.60
2018-07-20T04:56:35.293Z,16.50
2018-07-20T04:59:02.883Z,16.50
2018-07-20T05:01:30.500Z,16.40
2018-07-20T05:03:58.258Z,16.50
2018-07-20T05:06:26.042Z,16.50
2018-07-20T05:08:53.626Z,16.60
2018-07-20T05:11:21.239Z,16.60
2018-07-20T05:13:48.895Z,16.60
2018-07-20T05:16:16.973Z,16.60
2018-07-20T05:18:44.569Z,16.80
2018-07-20T05:21:12.203Z,16.80
2018-07-20T05:23:40.352Z,16.80
2018-07-20T05:26:07.994Z,17.00
2018-07-20T05:28:35.770Z,17.10
2018-07-20T05:31:03.601Z,17.10
2018-07-20T05:33:32.210Z,17.10
2018-07-20T05:35:59.788Z,17.10
2018-07-20T05:38:27.358Z,17.20
2018-07-20T05:40:54.930Z,17.30
2018-07-20T05:43:22.526Z,17.40
2018-07-20T05:45:50.138Z,17.50
2018-07-20T05:48:17.742Z,17.60
2018-07-20T05:50:45.474Z,17.70
2018-07-20T05:53:13.080Z,17.90
2018-07-20T05:55:40.702Z,18.00
2018-07-20T05:58:08.284Z,18.10
2018-07-20T06:00:35.878Z,18.30
2018-07-20T06:03:03.430Z,18.50
2018-07-20T06:05:31.046Z,18.60
2018-07-20T06:07:58.616Z,18.70
2018-07-20T06:10:29.105Z,18.70
2018-07-20T06:12:56.685Z,19.00
2018-07-20T06:15:24.263Z,19.00
2018-07-20T06:17:51.852Z,19.10
2018-07-20T06:20:19.413Z,19.20
2018-07-20T06:22:47.153Z,19.20
2018-07-20T06:25:14.757Z,19.30
2018-07-20T06:27:42.314Z,19.40
2018-07-20T06:30:09.926Z,19.50
2018-07-20T06:32:37.543Z,19.60
2018-07-20T06:35:05.145Z,19.80
2018-07-20T06:37:33.123Z,19.80
2018-07-20T06:40:00.754Z,20.00
2018-07-20T06:42:28.320Z,20.10
2018-07-20T06:44:55.889Z,20.20
2018-07-20T06:47:23.449Z,20.20
2018-07-20T06:49:51.099Z,20.30
2018-07-20T06:52:19.192Z,20.30
2018-07-20T06:54:47.374Z,20.30
2018-07-20T06:57:14.985Z,20.20
2018-07-20T06:59:43.038Z,20.30
2018-07-20T07:02:10.577Z,20.50
2018-07-20T07:04:38.298Z,20.70
2018-07-20T07:07:06.497Z,20.80
2018-07-20T07:09:34.120Z,21.00
2018-07-20T07:12:01.709Z,21.10
2018-07-20T07:14:29.299Z,21.10
2018-07-20T07:19:24.361Z,21.00
2018-07-20T07:21:51.950Z,21.00
2018-07-20T07:24:19.546Z,20.80
2018-07-20T07:26:47.474Z,20.80
2018-07-20T07:29:15.124Z,20.80
2018-07-20T07:31:42.670Z,20.80
2018-07-20T07:34:10.506Z,20.90
2018-07-20T07:36:38.070Z,21.00
2018-07-20T07:39:08.284Z,21.10
2018-07-20T07:41:35.873Z,21.10
2018-07-20T07:44:04.430Z,21.00
2018-07-20T07:46:32.094Z,21.20
2018-07-20T07:48:59.725Z,21.30
2018-07-20T07:51:27.486Z,21.50
2018-07-20T07:53:55.881Z,21.60
2018-07-20T07:56:23.483Z,21.70
2018-07-20T07:58:51.070Z,21.80
2018-07-20T08:01:18.881Z,21.90
2018-07-20T08:03:46.450Z,22.20
2018-07-20T08:06:14.123Z,22.20
2018-07-20T08:08:41.694Z,22.30
2018-07-20T08:11:09.285Z,22.30
2018-07-20T08:13:39.758Z,22.10
2018-07-20T08:16:07.369Z,21.90
2018-07-20T08:18:34.984Z,21.90
2018-07-20T08:21:02.821Z,22.00
2018-07-20T08:23:30.449Z,22.20
2018-07-20T08:28:25.642Z,22.50
2018-07-20T08:30:53.249Z,22.40
2018-07-20T08:35:48.346Z,22.70
2018-07-20T08:38:15.916Z,22.80
2018-07-20T08:40:43.513Z,22.80
2018-07-20T08:43:14.029Z,22.80
2018-07-20T08:45:41.636Z,23.00
2018-07-20T08:48:09.215Z,23.30
2018-07-20T08:50:36.836Z,23.50
2018-07-20T08:53:04.666Z,23.50
2018-07-20T08:55:32.637Z,23.60
2018-07-20T08:58:00.213Z,23.70
2018-07-20T09:00:27.778Z,24.00
2018-07-20T09:02:55.953Z,24.20
2018-07-20T09:05:23.617Z,24.40
2018-07-20T09:07:51.437Z,24.60
2018-07-20T09:10:21.820Z,24.70
2018-07-20T09:12:49.386Z,24.70
2018-07-20T09:15:16.978Z,24.70
2018-07-20T09:17:44.592Z,24.80
2018-07-20T09:20:12.206Z,25.00
2018-07-20T09:22:39.950Z,25.20
2018-07-20T09:25:10.209Z,25.30
2018-07-20T09:27:37.765Z,25.50
2018-07-20T09:30:05.406Z,25.60
2018-07-20T09:32:32.981Z,25.60
2018-07-20T09:35:00.546Z,25.60
2018-07-20T09:37:28.179Z,25.60
2018-07-20T09:39:55.793Z,25.90
2018-07-20T09:42:23.485Z,26.00
2018-07-20T09:44:51.097Z,26.00
2018-07-20T09:47:18.741Z,25.90
2018-07-20T09:49:46.569Z,25.80
2018-07-20T09:52:14.162Z,25.60
2018-07-20T09:54:41.746Z,25.50
2018-07-20T09:57:10.022Z,25.50
2018-07-20T09:59:37.665Z,25.60
2018-07-20T10:02:05.550Z,25.90
2018-07-20T10:04:33.137Z,26.10
2018-07-20T10:07:00.758Z,26.10
2018-07-20T10:09:28.317Z,26.40
2018-07-20T10:11:55.918Z,26.50
2018-07-20T10:14:23.497Z,26.70
2018-07-20T10:16:51.094Z,26.70
2018-07-20T10:19:18.825Z,26.70
2018-07-20T10:21:46.409Z,26.70
2018-07-20T10:24:13.974Z,26.60
2018-07-20T10:26:41.532Z,26.90
2018-07-20T10:29:09.108Z,27.10
2018-07-20T10:31:36.780Z,27.20
2018-07-20T10:34:04.459Z,27.30
2018-07-20T10:36:32.095Z,27.30
2018-07-20T10:38:59.714Z,27.50
2018-07-20T10:41:27.297Z,27.80
2018-07-20T10:43:55.129Z,28.00
2018-07-20T10:46:22.845Z,28.00
2018-07-20T10:48:50.397Z,27.90
2018-07-20T10:51:18.010Z,28.00
2018-07-20T10:53:45.601Z,28.00
2018-07-20T10:56:13.197Z,28.00
2018-07-20T10:58:40.801Z,28.00
2018-07-20T11:01:08.350Z,28.20
2018-07-20T11:03:35.982Z,28.30
2018-07-20T11:06:03.590Z,28.40
2018-07-20T11:08:31.185Z,28.50
2018-07-20T11:10:58.889Z,28.30
2018-07-20T11:13:26.605Z,28.30
2018-07-20T11:15:54.190Z,28.60
2018-07-20T11:18:21.789Z,28.60
2018-07-20T11:20:52.242Z,28.50
2018-07-20T11:23:20.810Z,28.70
2018-07-20T11:25:48.793Z,28.80
2018-07-20T11:28:16.374Z,29.20
2018-07-20T11:30:44.006Z,29.30
2018-07-20T11:33:11.606Z,29.10
2018-07-20T11:35:39.177Z,29.10
2018-07-20T11:38:06.778Z,29.10
2018-07-20T11:40:34.341Z,29.20
2018-07-20T11:43:01.955Z,29.30
2018-07-20T11:45:29.541Z,29.40
2018-07-20T11:47:57.205Z,29.60
2018-07-20T11:50:24.793Z,29.40
2018-07-20T11:52:52.397Z,29.50
2018-07-20T11:55:20.109Z,29.40
2018-07-20T11:57:47.721Z,29.50
2018-07-20T12:00:15.326Z,29.60
2018-07-20T12:02:42.910Z,29.50
2018-07-20T12:05:10.521Z,29.50
2018-07-20T12:07:38.084Z,30.00
2018-07-20T12:10:05.770Z,30.00
2018-07-20T12:12:33.353Z,30.10
2018-07-20T12:15:00.946Z,30.40
2018-07-20T12:17:28.529Z,30.50
2018-07-20T12:19:56.208Z,30.70
2018-07-20T12:22:23.798Z,30.60
2018-07-20T12:24:51.378Z,30.30
2018-07-20T12:27:18.966Z,30.20
2018-07-20T12:29:46.625Z,30.00
2018-07-20T12:32:14.206Z,30.10
2018-07-20T12:34:41.819Z,30.30
2018-07-20T12:37:09.390Z,30.20
2018-07-20T12:39:37.629Z,30.10
2018-07-20T12:42:05.968Z,29.80
2018-07-20T12:44:33.596Z,29.80
2018-07-20T12:47:01.236Z,29.90
2018-07-20T12:49:29.420Z,30.10
2018-07-20T12:51:57.433Z,30.60
2018-07-20T12:54:25.013Z,31.20
2018-07-20T12:56:53.658Z,31.80
2018-07-20T12:59:21.250Z,32.10
2018-07-20T13:01:49.722Z,32.40
2018-07-20T13:04:18.778Z,32.60
2018-07-20T13:06:46.349Z,32.30
2018-07-20T13:09:13.929Z,31.80
2018-07-20T13:11:42.121Z,31.60
2018-07-20T13:14:10.522Z,31.30
2018-07-20T13:16:38.081Z,31.50
2018-07-20T13:19:05.709Z,31.50
2018-07-20T13:21:33.273Z,32.00
2018-07-20T13:24:00.894Z,32.20
2018-07-20T13:26:28.465Z,31.60
2018-07-20T13:28:56.063Z,31.80
2018-07-20T13:31:23.846Z,31.80
2018-07-20T13:33:51.478Z,32.30
2018-07-20T13:36:21.352Z,32.60
2018-07-20T13:38:49.053Z,33.10
2018-07-20T13:41:16.613Z,33.70
2018-07-20T13:43:44.222Z,33.50
2018-07-20T13:46:11.970Z,33.50
2018-07-20T13:48:39.552Z,33.80
2018-07-20T13:51:07.192Z,33.50
2018-07-20T13:53:34.778Z,33.20
2018-07-20T13:56:02.433Z,33.30
2018-07-20T13:58:30.037Z,33.70
2018-07-20T14:00:57.625Z,34.50
2018-07-20T14:03:25.208Z,34.80
2018-07-20T14:05:52.804Z,35.00
2018-07-20T14:08:20.402Z,35.70
2018-07-20T14:10:48.013Z,36.70
2018-07-20T14:13:15.573Z,36.40
2018-07-20T14:16:13.940Z,36.50
2018-07-20T14:18:41.834Z,37.50
2018-07-20T14:23:38.215Z,37.90
2018-07-20T14:26:05.906Z,38.10
2018-07-20T14:28:36.457Z,37.20
2018-07-20T14:33:31.627Z,39.00
2018-07-20T14:35:59.261Z,39.50
2018-07-20T14:38:27.552Z,39.80
2018-07-20T14:40:55.714Z,38.60
2018-07-20T14:43:23.518Z,39.10
2018-07-20T14:45:51.219Z,39.20
2018-07-20T14:48:19.186Z,38.70
2018-07-20T14:50:47.484Z,38.00
2018-07-20T14:53:17.609Z,37.10
2018-07-20T14:55:45.321Z,36.20
2018-07-20T14:58:12.850Z,35.10
2018-07-20T15:00:40.637Z,35.10
2018-07-20T15:03:08.301Z,34.80
2018-07-20T15:05:35.921Z,34.30
2018-07-20T15:08:04.018Z,32.90
2018-07-20T15:10:31.650Z,32.30
2018-07-20T15:12:59.296Z,31.70
2018-07-20T15:15:26.910Z,31.30
2018-07-20T15:17:54.578Z,31.20
2018-07-20T15:20:22.189Z,30.80
2018-07-20T15:22:50.806Z,30.50
2018-07-20T15:25:19.285Z,30.40
2018-07-20T15:27:47.710Z,30.40
2018-07-20T15:30:16.609Z,30.20
2018-07-20T15:32:44.191Z,30.30
2018-07-20T15:35:12.117Z,30.30
2018-07-20T15:37:39.728Z,30.40
2018-07-20T15:40:07.382Z,30.40
2018-07-20T15:42:35.026Z,30.40
2018-07-20T15:45:02.674Z,30.30
2018-07-20T15:47:30.402Z,30.20
2018-07-20T15:49:57.884Z,30.00
2018-07-20T15:54:52.997Z,30.10
2018-07-20T15:57:20.573Z,30.00
2018-07-20T15:59:48.836Z,30.00
2018-07-20T16:04:47.157Z,29.80
2018-07-20T16:07:14.854Z,29.60
2018-07-20T16:09:42.425Z,29.50
2018-07-20T16:12:10.048Z,29.50
2018-07-20T16:14:37.721Z,29.40
2018-07-20T16:17:05.345Z,29.10
2018-07-20T16:19:32.989Z,29.10
2018-07-20T16:22:00.648Z,29.00
2018-07-20T16:24:28.226Z,28.80
2018-07-20T16:26:55.864Z,28.70
2018-07-20T16:29:23.428Z,28.70
2018-07-20T16:31:51.016Z,28.50
2018-07-20T16:34:18.597Z,28.40
2018-07-20T16:36:46.198Z,28.20
2018-07-20T16:39:13.769Z,28.10
2018-07-20T16:41:41.374Z,28.00
2018-07-20T16:44:09.254Z,27.40
2018-07-20T16:46:37.197Z,26.80
2018-07-20T16:49:04.865Z,26.60
2018-07-20T16:51:32.482Z,26.60
2018-07-20T16:54:00.040Z,26.50
2018-07-20T16:56:27.638Z,26.20
2018-07-20T16:58:55.281Z,25.90
2018-07-20T17:01:22.865Z,25.80
2018-07-20T17:03:50.753Z,25.60
2018-07-20T17:06:18.445Z,25.60
2018-07-20T17:08:46.005Z,25.60
2018-07-20T17:11:13.769Z,25.60
2018-07-20T17:13:45.225Z,25.50
2018-07-20T17:16:13.015Z,25.40
2018-07-20T17:18:42.433Z,25.30
2018-07-20T17:21:11.126Z,25.10
2018-07-20T17:23:38.748Z,25.00
2018-07-20T17:26:08.357Z,25.00
2018-07-20T17:28:36.831Z,25.00
2018-07-20T17:31:04.449Z,25.10
2018-07-20T17:33:32.047Z,25.20
2018-07-20T17:35:59.633Z,25.30
2018-07-20T17:38:27.321Z,25.40
2018-07-20T17:40:54.893Z,25.30
2018-07-20T17:43:22.537Z,25.20
2018-07-20T17:45:50.181Z,25.30
2018-07-20T17:48:17.773Z,25.30
2018-07-20T17:50:46.405Z,25.40
2018-07-20T17:53:14.984Z,25.30
2018-07-20T17:55:42.637Z,25.30
2018-07-20T17:58:10.201Z,25.50
2018-07-20T18:00:37.768Z,25.60
2018-07-20T18:03:05.399Z,25.80
2018-07-20T18:05:32.949Z,25.80
2018-07-20T18:08:00.901Z,25.90
2018-07-20T18:10:28.600Z,25.90
2018-07-20T18:12:56.257Z,25.80
2018-07-20T18:15:23.953Z,25.90
2018-07-20T18:17:51.599Z,25.80
2018-07-20T18:20:19.189Z,25.70
2018-07-20T18:22:46.814Z,25.70
2018-07-20T18:25:15.005Z,25.60
2018-07-20T18:27:42.623Z,25.60
2018-07-20T18:30:10.749Z,25.60
2018-07-20T18:32:38.411Z,25.80
2018-07-20T18:35:06.020Z,25.70
2018-07-20T18:37:33.613Z,25.70
2018-07-20T18:40:01.455Z,25.80
2018-07-20T18:42:29.098Z,25.70
2018-07-20T18:44:56.755Z,25.70
2018-07-20T18:47:24.373Z,25.60
2018-07-20T18:49:52.062Z,25.60
2018-07-20T18:52:23.566Z,25.30
2018-07-20T18:54:51.676Z,25.10
2018-07-20T18:57:19.427Z,25.10
2018-07-20T18:59:47.508Z,25.10
2018-07-20T19:02:15.122Z,25.00
2018-07-20T19:04:47.420Z,24.90
2018-07-20T19:07:17.353Z,24.90
2018-07-20T19:09:45.037Z,24.80
2018-07-20T19:12:12.639Z,24.70
2018-07-20T19:14:40.284Z,24.60
2018-07-20T19:17:07.891Z,24.50
2018-07-20T19:19:35.483Z,24.50
2018-07-20T19:22:03.121Z,24.40
2018-07-20T19:24:30.730Z,24.40
2018-07-20T19:26:58.417Z,24.30
2018-07-20T19:29:26.009Z,24.20
2018-07-20T19:31:53.654Z,24.10
2018-07-20T19:34:21.274Z,24.10
2018-07-20T19:36:48.874Z,24.10
2018-07-20T19:39:20.130Z,24.00
2018-07-20T19:41:47.805Z,23.90
2018-07-20T19:44:15.378Z,23.80
2018-07-20T19:46:42.975Z,23.70
2018-07-20T19:49:10.682Z,23.70
2018-07-20T19:51:38.271Z,23.60
2018-07-20T19:54:05.922Z,23.50
2018-07-20T19:56:33.768Z,23.50
2018-07-20T19:59:01.403Z,23.50
2018-07-20T20:01:28.982Z,23.50
2018-07-20T20:03:56.830Z,23.50
2018-07-20T20:06:24.414Z,23.40
2018-07-20T20:08:52.143Z,23.30
2018-07-20T20:11:19.994Z,23.20
2018-07-20T20:13:49.260Z,23.20
2018-07-20T20:16:17.157Z,23.20
2018-07-20T20:18:44.814Z,23.10
2018-07-20T20:21:12.399Z,23.10
2018-07-20T20:23:40.002Z,23.10
2018-07-20T20:26:07.595Z,23.00
2018-07-20T20:28:35.721Z,22.90
2018-07-20T20:31:03.369Z,23.00
2018-07-20T20:33:31.121Z,23.00
2018-07-20T20:35:58.704Z,23.00
2018-07-20T20:38:26.285Z,22.90
2018-07-20T20:40:53.917Z,22.90
2018-07-20T20:43:21.546Z,22.90
2018-07-20T20:45:49.114Z,22.90
2018-07-20T20:48:16.706Z,22.90
2018-07-20T20:50:44.328Z,22.80
2018-07-20T20:53:11.910Z,22.90
2018-07-20T20:55:39.482Z,22.90
2018-07-20T20:58:07.149Z,22.90
2018-07-20T21:00:34.736Z,23.00
2018-07-20T21:03:02.342Z,22.80
2018-07-20T21:05:29.993Z,22.70
2018-07-20T21:07:57.698Z,22.70
2018-07-20T21:10:25.297Z,22.60
2018-07-20T21:12:53.016Z,22.70
2018-07-20T21:15:20.649Z,22.70
2018-07-20T21:17:48.250Z,22.70
2018-07-20T21:20:15.846Z,22.70
2018-07-20T21:22:43.555Z,22.70
2018-07-20T21:25:11.237Z,22.70
2018-07-20T21:27:38.801Z,22.60
2018-07-20T21:30:06.568Z,22.60
2018-07-20T21:32:34.581Z,22.60
2018-07-20T21:35:02.322Z,22.60
2018-07-20T21:37:29.938Z,22.50
2018-07-20T21:39:57.561Z,22.50
2018-07-20T21:42:25.326Z,22.50
2018-07-20T21:44:52.926Z,22.50
2018-07-20T21:47:20.537Z,22.50
2018-07-20T21:49:48.160Z,22.50
2018-07-20T21:52:15.776Z,22.50
2018-07-20T21:54:46.241Z,22.40
2018-07-20T21:57:17.732Z,22.40
2018-07-20T21:59:45.391Z,22.40
2018-07-20T22:02:12.981Z,22.40
2018-07-20T22:04:40.574Z,22.40
2018-07-20T22:07:08.161Z,22.30
2018-07-20T22:09:35.756Z,22.20
2018-07-20T22:12:03.347Z,22.20
2018-07-20T22:14:30.930Z,22.10
2018-07-20T22:16:58.480Z,22.00
2018-07-20T22:19:26.176Z,22.00
2018-07-20T22:21:53.761Z,21.90
2018-07-20T22:24:21.333Z,21.90
2018-07-20T22:26:48.900Z,21.80
2018-07-20T22:29:16.510Z,21.70
2018-07-20T22:31:44.052Z,21.70
2018-07-20T22:34:11.605Z,21.70
2018-07-20T22:36:39.256Z,21.70
2018-07-20T22:39:09.681Z,21.70
2018-07-20T22:41:37.302Z,21.70
2018-07-20T22:44:04.921Z,21.70
2018-07-20T22:46:32.494Z,21.70
2018-07-20T22:49:00.077Z,21.80
2018-07-20T22:51:28.018Z,21.80
2018-07-20T22:53:55.591Z,21.80
2018-07-20T22:56:23.189Z,21.70
2018-07-20T22:58:50.792Z,21.70
2018-07-20T23:01:18.566Z,21.60
2018-07-20T23:03:46.159Z,21.60
2018-07-20T23:06:13.728Z,21.60
2018-07-20T23:08:41.958Z,21.60
2018-07-20T23:11:09.549Z,21.60
2018-07-20T23:13:37.279Z,21.70
2018-07-20T23:16:05.054Z,21.60
2018-07-20T23:18:32.620Z,21.60
2018-07-20T23:21:00.301Z,21.50
2018-07-20T23:23:28.023Z,21.50
2018-07-20T23:25:55.630Z,21.60
2018-07-20T23:30:51.197Z,21.30
2018-07-20T23:33:18.881Z,21.30
2018-07-20T23:35:46.472Z,21.20
2018-07-20T23:38:14.077Z,21.20
2018-07-20T23:40:41.892Z,21.20
2018-07-20T23:43:09.953Z,21.20
2018-07-20T23:45:37.521Z,21.10
2018-07-20T23:48:05.327Z,21.10
2018-07-20T23:50:32.920Z,21.00
2018-07-20T23:53:00.514Z,20.90
2018-07-20T23:55:28.097Z,20.90
2018-07-20T23:57:55.721Z,20.90
